Terminal Aerodrome Forecast
Issued by NWS Memphis, TN

Home | Current Version | Previous Version | Text Only | Print | Product List | Glossary On
Versions: 1 2 3 4 5 6 7 8 9 10 11 12 13 14 15 16
690
FTUS44 KMEG 261726
TAFJBR
TAF
KJBR 261726Z 2618/2718 11005KT P6SM SCT035 SCT250
     FM262000 12006KT P6SM VCTS SCT050CB
     FM270000 VRB03KT P6SM FEW150 SCT250
     FM271100 07003KT 4SM BR VCTS BKN040CB BKN150
     FM271400 10005KT P6SM VCTS BKN040CB BKN150=

USA.gov is the U.S. government's official web portal to all federal, state and local government web resources and services.